Dunseith, North Dakota
Current Conditions -  °F | °C
As of 10:35 AM on Friday 24 Oct 2014 (Local Time) from K06D Reporting Station
Clear Clear  
Wind Chill: 57°   Ceiling: Unl
Heat Index: 57°   Visibility: 10mi
Dew Point: 39°   Wind: 16mph
Humidity: 51%   Direction: 250°WSW
Pressure: 29.76"   Gusts: 21mph
Location:  48.81°N, 100.06°W
Report Text: K06D 241535Z AUTO 25014G18KT 10SM CLR 14/04 A2976 RMK AO2
Loading
Personal Weather Stations






























Interactive Weather Map
Tropical Storm Tracking
New forecast layout! Learn more

10-Day Weather Forecast

Advertisements
Track Severe Weather on mobile